sensor_id;sensor_type;location;lat;lon;timestamp;temperature;humidity
10472;DHT22;5283;48.876;8.962;2023-02-26T00:01:22;-0.60;99.90
10472;DHT22;5283;48.876;8.962;2023-02-26T00:03:51;-0.70;99.90
10472;DHT22;5283;48.876;8.962;2023-02-26T00:06:19;-0.80;99.90
10472;DHT22;5283;48.876;8.962;2023-02-26T00:08:46;-0.90;99.90
10472;DHT22;5283;48.876;8.962;2023-02-26T00:11:13;-1.10;99.90
10472;DHT22;5283;48.876;8.962;2023-02-26T00:13:41;-1.20;99.90
10472;DHT22;5283;48.876;8.962;2023-02-26T00:16:24;-1.40;99.90
10472;DHT22;5283;48.876;8.962;2023-02-26T00:18:52;-1.40;99.90
10472;DHT22;5283;48.876;8.962;2023-02-26T00:21:21;-1.40;99.90
10472;DHT22;5283;48.876;8.962;2023-02-26T00:23:48;-1.40;99.90
10472;DHT22;5283;48.876;8.962;2023-02-26T00:26:15;-1.60;99.90
10472;DHT22;5283;48.876;8.962;2023-02-26T00:28:42;-1.60;99.90
10472;DHT22;5283;48.876;8.962;2023-02-26T00:31:09;-1.50;99.90
10472;DHT22;5283;48.876;8.962;2023-02-26T00:33:37;-1.50;99.90
10472;DHT22;5283;48.876;8.962;2023-02-26T00:36:37;-1.50;99.90
10472;DHT22;5283;48.876;8.962;2023-02-26T00:41:57;-1.70;99.90
10472;DHT22;5283;48.876;8.962;2023-02-26T00:44:24;-1.70;99.90
10472;DHT22;5283;48.876;8.962;2023-02-26T00:54:57;-2.10;99.90
10472;DHT22;5283;48.876;8.962;2023-02-26T00:57:24;-1.90;99.90
10472;DHT22;5283;48.876;8.962;2023-02-26T00:59:50;-1.80;99.90
10472;DHT22;5283;48.876;8.962;2023-02-26T01:02:17;-1.70;99.90
10472;DHT22;5283;48.876;8.962;2023-02-26T01:04:44;-1.80;99.90
10472;DHT22;5283;48.876;8.962;2023-02-26T01:07:12;-1.90;99.90
10472;DHT22;5283;48.876;8.962;2023-02-26T01:09:40;-2.00;99.90
10472;DHT22;5283;48.876;8.962;2023-02-26T01:12:09;-2.20;99.90
10472;DHT22;5283;48.876;8.962;2023-02-26T01:14:37;-2.20;99.90
10472;DHT22;5283;48.876;8.962;2023-02-26T01:17:10;-2.20;99.90
10472;DHT22;5283;48.876;8.962;2023-02-26T01:22:30;-2.40;99.90
10472;DHT22;5283;48.876;8.962;2023-02-26T01:25:11;-2.50;99.90
10472;DHT22;5283;48.876;8.962;2023-02-26T01:27:39;-2.60;99.90
10472;DHT22;5283;48.876;8.962;2023-02-26T01:30:06;-2.60;99.90
10472;DHT22;5283;48.876;8.962;2023-02-26T01:32:47;-2.60;99.90
10472;DHT22;5283;48.876;8.962;2023-02-26T01:35:38;-2.70;99.90
10472;DHT22;5283;48.876;8.962;2023-02-26T01:38:19;-2.80;99.90
10472;DHT22;5283;48.876;8.962;2023-02-26T01:41:09;-3.00;99.90
10472;DHT22;5283;48.876;8.962;2023-02-26T01:43:52;-3.10;99.90
10472;DHT22;5283;48.876;8.962;2023-02-26T01:48:58;-3.30;99.90
10472;DHT22;5283;48.876;8.962;2023-02-26T01:51:51;-3.50;99.90
10472;DHT22;5283;48.876;8.962;2023-02-26T01:54:21;-3.60;99.90
10472;DHT22;5283;48.876;8.962;2023-02-26T01:56:56;-3.70;99.90
10472;DHT22;5283;48.876;8.962;2023-02-26T01:59:24;-3.70;99.90
10472;DHT22;5283;48.876;8.962;2023-02-26T02:01:53;-3.80;99.90
10472;DHT22;5283;48.876;8.962;2023-02-26T02:04:21;-3.90;99.90
10472;DHT22;5283;48.876;8.962;2023-02-26T02:06:49;-3.90;99.90
10472;DHT22;5283;48.876;8.962;2023-02-26T02:09:16;-3.90;99.90
10472;DHT22;5283;48.876;8.962;2023-02-26T02:18:06;-4.20;99.90
10472;DHT22;5283;48.876;8.962;2023-02-26T02:23:25;-4.00;99.90
10472;DHT22;5283;48.876;8.962;2023-02-26T02:28:49;-4.10;99.90
10472;DHT22;5283;48.876;8.962;2023-02-26T02:31:27;-4.20;99.90
10472;DHT22;5283;48.876;8.962;2023-02-26T02:34:13;-4.20;99.90
10472;DHT22;5283;48.876;8.962;2023-02-26T02:36:57;-4.30;99.90
10472;DHT22;5283;48.876;8.962;2023-02-26T02:39:31;-4.50;99.90
10472;DHT22;5283;48.876;8.962;2023-02-26T02:42:08;-4.50;99.90
10472;DHT22;5283;48.876;8.962;2023-02-26T02:44:47;-4.60;99.90
10472;DHT22;5283;48.876;8.962;2023-02-26T02:47:16;-4.60;99.90
10472;DHT22;5283;48.876;8.962;2023-02-26T02:49:49;-4.60;99.90
10472;DHT22;5283;48.876;8.962;2023-02-26T02:52:35;-4.60;99.90
10472;DHT22;5283;48.876;8.962;2023-02-26T02:55:29;-4.70;99.90
10472;DHT22;5283;48.876;8.962;2023-02-26T02:58:00;-4.70;99.90
10472;DHT22;5283;48.876;8.962;2023-02-26T03:00:31;-4.80;99.90
10472;DHT22;5283;48.876;8.962;2023-02-26T03:03:25;-4.80;99.90
10472;DHT22;5283;48.876;8.962;2023-02-26T03:05:53;-4.90;99.90
10472;DHT22;5283;48.876;8.962;2023-02-26T03:08:25;-4.90;99.90
10472;DHT22;5283;48.876;8.962;2023-02-26T03:10:53;-5.00;99.90
10472;DHT22;5283;48.876;8.962;2023-02-26T03:13:22;-5.00;99.90
10472;DHT22;5283;48.876;8.962;2023-02-26T03:23:50;-5.20;99.90
10472;DHT22;5283;48.876;8.962;2023-02-26T03:26:30;-5.10;99.90
10472;DHT22;5283;48.876;8.962;2023-02-26T03:29:08;-5.10;99.90
10472;DHT22;5283;48.876;8.962;2023-02-26T03:31:57;-5.30;99.90
10472;DHT22;5283;48.876;8.962;2023-02-26T03:34:32;-5.30;99.90
10472;DHT22;5283;48.876;8.962;2023-02-26T03:37:06;-5.30;99.90
10472;DHT22;5283;48.876;8.962;2023-02-26T03:39:39;-5.40;99.90
10472;DHT22;5283;48.876;8.962;2023-02-26T03:42:26;-5.30;99.90
10472;DHT22;5283;48.876;8.962;2023-02-26T03:44:57;-5.30;99.90
10472;DHT22;5283;48.876;8.962;2023-02-26T03:47:26;-5.30;99.90
10472;DHT22;5283;48.876;8.962;2023-02-26T03:50:04;-5.30;99.90
10472;DHT22;5283;48.876;8.962;2023-02-26T03:52:34;-5.30;99.90
10472;DHT22;5283;48.876;8.962;2023-02-26T03:55:16;-5.40;99.90
10472;DHT22;5283;48.876;8.962;2023-02-26T03:57:43;-5.50;99.90
10472;DHT22;5283;48.876;8.962;2023-02-26T04:00:12;-5.50;99.90
10472;DHT22;5283;48.876;8.962;2023-02-26T04:05:24;-5.60;99.90
10472;DHT22;5283;48.876;8.962;2023-02-26T04:07:52;-5.60;99.90
10472;DHT22;5283;48.876;8.962;2023-02-26T04:10:24;-5.50;99.90
10472;DHT22;5283;48.876;8.962;2023-02-26T04:12:52;-5.60;99.90
10472;DHT22;5283;48.876;8.962;2023-02-26T04:15:19;-5.80;99.90
10472;DHT22;5283;48.876;8.962;2023-02-26T04:17:46;-5.80;99.90
10472;DHT22;5283;48.876;8.962;2023-02-26T04:20:12;-5.80;99.90
10472;DHT22;5283;48.876;8.962;2023-02-26T04:22:39;-5.80;99.90
10472;DHT22;5283;48.876;8.962;2023-02-26T04:25:06;-5.80;99.90
10472;DHT22;5283;48.876;8.962;2023-02-26T04:27:33;-5.80;99.90
10472;DHT22;5283;48.876;8.962;2023-02-26T04:29:59;-5.90;99.90
10472;DHT22;5283;48.876;8.962;2023-02-26T04:32:26;-5.90;99.90
10472;DHT22;5283;48.876;8.962;2023-02-26T04:34:53;-6.00;99.90
10472;DHT22;5283;48.876;8.962;2023-02-26T04:37:20;-6.10;99.90
10472;DHT22;5283;48.876;8.962;2023-02-26T04:39:46;-6.10;99.90
10472;DHT22;5283;48.876;8.962;2023-02-26T04:42:13;-6.10;99.90
10472;DHT22;5283;48.876;8.962;2023-02-26T04:44:40;-6.20;99.90
10472;DHT22;5283;48.876;8.962;2023-02-26T04:47:06;-6.20;99.90
10472;DHT22;5283;48.876;8.962;2023-02-26T04:49:33;-6.10;99.90
10472;DHT22;5283;48.876;8.962;2023-02-26T04:52:00;-6.10;99.90
10472;DHT22;5283;48.876;8.962;2023-02-26T04:54:26;-6.00;99.90
10472;DHT22;5283;48.876;8.962;2023-02-26T04:56:53;-6.00;99.90
10472;DHT22;5283;48.876;8.962;2023-02-26T04:59:20;-6.00;99.90
10472;DHT22;5283;48.876;8.962;2023-02-26T05:01:47;-6.00;99.90
10472;DHT22;5283;48.876;8.962;2023-02-26T05:04:13;-6.00;99.90
10472;DHT22;5283;48.876;8.962;2023-02-26T05:06:40;-5.80;99.90
10472;DHT22;5283;48.876;8.962;2023-02-26T05:09:07;-5.90;99.90
10472;DHT22;5283;48.876;8.962;2023-02-26T05:11:34;-5.80;99.90
10472;DHT22;5283;48.876;8.962;2023-02-26T05:14:00;-5.70;99.90
10472;DHT22;5283;48.876;8.962;2023-02-26T05:16:27;-5.70;99.90
10472;DHT22;5283;48.876;8.962;2023-02-26T05:18:54;-5.60;99.90
10472;DHT22;5283;48.876;8.962;2023-02-26T05:21:21;-5.60;99.90
10472;DHT22;5283;48.876;8.962;2023-02-26T05:23:50;-5.70;99.90
10472;DHT22;5283;48.876;8.962;2023-02-26T05:26:16;-5.80;99.90
10472;DHT22;5283;48.876;8.962;2023-02-26T05:28:43;-5.80;99.90
10472;DHT22;5283;48.876;8.962;2023-02-26T05:31:12;-5.90;99.90
10472;DHT22;5283;48.876;8.962;2023-02-26T05:33:39;-6.00;99.90
10472;DHT22;5283;48.876;8.962;2023-02-26T05:36:06;-6.10;99.90
10472;DHT22;5283;48.876;8.962;2023-02-26T05:38:33;-6.10;99.90
10472;DHT22;5283;48.876;8.962;2023-02-26T05:41:00;-6.10;99.90
10472;DHT22;5283;48.876;8.962;2023-02-26T05:43:27;-6.20;99.90
10472;DHT22;5283;48.876;8.962;2023-02-26T05:45:54;-6.10;99.90
10472;DHT22;5283;48.876;8.962;2023-02-26T05:48:22;-6.10;99.90
10472;DHT22;5283;48.876;8.962;2023-02-26T05:50:49;-6.10;99.90
10472;DHT22;5283;48.876;8.962;2023-02-26T05:53:16;-6.10;99.90
10472;DHT22;5283;48.876;8.962;2023-02-26T05:55:43;-6.00;99.90
10472;DHT22;5283;48.876;8.962;2023-02-26T05:58:10;-6.00;99.90
10472;DHT22;5283;48.876;8.962;2023-02-26T06:00:37;-6.10;99.90
10472;DHT22;5283;48.876;8.962;2023-02-26T06:03:04;-6.00;99.90
10472;DHT22;5283;48.876;8.962;2023-02-26T06:05:31;-6.00;99.90
10472;DHT22;5283;48.876;8.962;2023-02-26T06:07:58;-6.10;99.90
10472;DHT22;5283;48.876;8.962;2023-02-26T06:10:25;-6.10;99.90
10472;DHT22;5283;48.876;8.962;2023-02-26T06:12:51;-6.00;99.90
10472;DHT22;5283;48.876;8.962;2023-02-26T06:15:18;-6.00;99.90
10472;DHT22;5283;48.876;8.962;2023-02-26T06:17:45;-6.00;99.90
10472;DHT22;5283;48.876;8.962;2023-02-26T06:20:12;-6.00;99.90
10472;DHT22;5283;48.876;8.962;2023-02-26T06:22:38;-6.00;99.90
10472;DHT22;5283;48.876;8.962;2023-02-26T06:25:06;-6.00;99.90
10472;DHT22;5283;48.876;8.962;2023-02-26T06:27:33;-6.00;99.90
10472;DHT22;5283;48.876;8.962;2023-02-26T06:29:59;-6.10;99.90
10472;DHT22;5283;48.876;8.962;2023-02-26T06:32:26;-6.10;99.90
10472;DHT22;5283;48.876;8.962;2023-02-26T06:34:56;-6.00;99.90
10472;DHT22;5283;48.876;8.962;2023-02-26T06:37:22;-6.10;99.90
10472;DHT22;5283;48.876;8.962;2023-02-26T06:39:49;-6.00;99.90
10472;DHT22;5283;48.876;8.962;2023-02-26T06:42:16;-6.10;99.90
10472;DHT22;5283;48.876;8.962;2023-02-26T06:44:45;-6.10;99.90
10472;DHT22;5283;48.876;8.962;2023-02-26T06:47:12;-6.10;99.90
10472;DHT22;5283;48.876;8.962;2023-02-26T06:49:39;-6.00;99.90
10472;DHT22;5283;48.876;8.962;2023-02-26T06:52:05;-5.80;99.90
10472;DHT22;5283;48.876;8.962;2023-02-26T06:54:32;-5.60;99.90
10472;DHT22;5283;48.876;8.962;2023-02-26T06:56:59;-5.40;99.90
10472;DHT22;5283;48.876;8.962;2023-02-26T06:59:28;-5.10;99.90
10472;DHT22;5283;48.876;8.962;2023-02-26T07:01:54;-4.90;99.90
10472;DHT22;5283;48.876;8.962;2023-02-26T07:04:22;-4.60;99.90
10472;DHT22;5283;48.876;8.962;2023-02-26T07:06:49;-4.40;99.90
10472;DHT22;5283;48.876;8.962;2023-02-26T07:09:16;-4.30;99.90
10472;DHT22;5283;48.876;8.962;2023-02-26T07:11:45;-4.20;99.90
10472;DHT22;5283;48.876;8.962;2023-02-26T07:14:12;-4.00;99.90
10472;DHT22;5283;48.876;8.962;2023-02-26T07:16:38;-3.80;99.90
10472;DHT22;5283;48.876;8.962;2023-02-26T07:19:05;-3.60;99.90
10472;DHT22;5283;48.876;8.962;2023-02-26T07:21:32;-3.40;99.90
10472;DHT22;5283;48.876;8.962;2023-02-26T07:23:59;-3.30;99.90
10472;DHT22;5283;48.876;8.962;2023-02-26T07:26:25;-3.20;99.90
10472;DHT22;5283;48.876;8.962;2023-02-26T07:28:52;-3.00;99.90
10472;DHT22;5283;48.876;8.962;2023-02-26T07:31:19;-2.90;99.90
10472;DHT22;5283;48.876;8.962;2023-02-26T07:33:46;-2.80;99.90
10472;DHT22;5283;48.876;8.962;2023-02-26T07:36:13;-2.60;99.90
10472;DHT22;5283;48.876;8.962;2023-02-26T07:38:40;-2.40;99.90
10472;DHT22;5283;48.876;8.962;2023-02-26T07:41:06;-2.20;99.90
10472;DHT22;5283;48.876;8.962;2023-02-26T07:43:33;-2.00;99.90
10472;DHT22;5283;48.876;8.962;2023-02-26T07:46:00;-1.80;99.90
10472;DHT22;5283;48.876;8.962;2023-02-26T07:48:27;-1.70;99.90
10472;DHT22;5283;48.876;8.962;2023-02-26T07:50:54;-1.60;99.90
10472;DHT22;5283;48.876;8.962;2023-02-26T07:53:22;-1.60;99.90
10472;DHT22;5283;48.876;8.962;2023-02-26T07:55:49;-1.50;99.90
10472;DHT22;5283;48.876;8.962;2023-02-26T07:58:16;-1.40;99.90
10472;DHT22;5283;48.876;8.962;2023-02-26T08:00:43;-1.40;99.90
10472;DHT22;5283;48.876;8.962;2023-02-26T08:03:10;-1.30;99.90
10472;DHT22;5283;48.876;8.962;2023-02-26T08:05:36;-1.30;99.90
10472;DHT22;5283;48.876;8.962;2023-02-26T08:08:03;-1.30;99.90
10472;DHT22;5283;48.876;8.962;2023-02-26T08:10:30;-1.30;99.90
10472;DHT22;5283;48.876;8.962;2023-02-26T08:12:58;-1.30;99.90
10472;DHT22;5283;48.876;8.962;2023-02-26T08:15:25;-1.20;99.90
10472;DHT22;5283;48.876;8.962;2023-02-26T08:17:52;-1.10;99.90
10472;DHT22;5283;48.876;8.962;2023-02-26T08:20:19;-1.00;99.90
10472;DHT22;5283;48.876;8.962;2023-02-26T08:22:46;-0.90;99.90
10472;DHT22;5283;48.876;8.962;2023-02-26T08:25:13;-0.90;99.90
10472;DHT22;5283;48.876;8.962;2023-02-26T08:27:39;-0.90;99.90
10472;DHT22;5283;48.876;8.962;2023-02-26T08:30:07;-0.80;99.90
10472;DHT22;5283;48.876;8.962;2023-02-26T08:32:35;-0.70;99.90
10472;DHT22;5283;48.876;8.962;2023-02-26T08:35:02;-0.60;99.90
10472;DHT22;5283;48.876;8.962;2023-02-26T08:37:29;-0.40;99.90
10472;DHT22;5283;48.876;8.962;2023-02-26T08:39:56;-0.30;99.90
10472;DHT22;5283;48.876;8.962;2023-02-26T08:42:22;-0.30;99.90
10472;DHT22;5283;48.876;8.962;2023-02-26T08:44:49;-0.30;99.90
10472;DHT22;5283;48.876;8.962;2023-02-26T08:47:16;-0.20;99.90
10472;DHT22;5283;48.876;8.962;2023-02-26T08:49:53;-0.10;99.90
10472;DHT22;5283;48.876;8.962;2023-02-26T08:52:26;-0.10;99.90
10472;DHT22;5283;48.876;8.962;2023-02-26T08:54:53;-0.20;99.90
10472;DHT22;5283;48.876;8.962;2023-02-26T08:57:20;-0.20;99.90
10472;DHT22;5283;48.876;8.962;2023-02-26T08:59:47;-0.30;99.90
10472;DHT22;5283;48.876;8.962;2023-02-26T09:02:13;-0.30;99.90
10472;DHT22;5283;48.876;8.962;2023-02-26T09:04:40;-0.30;99.90
10472;DHT22;5283;48.876;8.962;2023-02-26T09:07:07;-0.30;99.90
10472;DHT22;5283;48.876;8.962;2023-02-26T09:09:34;-0.30;99.90
10472;DHT22;5283;48.876;8.962;2023-02-26T09:12:04;-0.30;99.90
10472;DHT22;5283;48.876;8.962;2023-02-26T09:14:30;-0.10;99.90
10472;DHT22;5283;48.876;8.962;2023-02-26T09:16:57;0.30;99.90
10472;DHT22;5283;48.876;8.962;2023-02-26T09:19:24;0.30;99.90
10472;DHT22;5283;48.876;8.962;2023-02-26T09:21:51;0.20;99.90
10472;DHT22;5283;48.876;8.962;2023-02-26T09:24:18;0.10;99.90
10472;DHT22;5283;48.876;8.962;2023-02-26T09:26:44;0.10;99.90
10472;DHT22;5283;48.876;8.962;2023-02-26T09:29:11;0.10;99.90
10472;DHT22;5283;48.876;8.962;2023-02-26T09:31:39;-0.10;99.90
10472;DHT22;5283;48.876;8.962;2023-02-26T09:34:11;-0.30;99.90
10472;DHT22;5283;48.876;8.962;2023-02-26T09:36:39;-0.40;99.90
10472;DHT22;5283;48.876;8.962;2023-02-26T09:39:06;-0.40;99.90
10472;DHT22;5283;48.876;8.962;2023-02-26T09:41:42;-0.40;99.90
10472;DHT22;5283;48.876;8.962;2023-02-26T09:55:32;-0.40;99.90
10472;DHT22;5283;48.876;8.962;2023-02-26T09:58:02;-0.40;99.90
10472;DHT22;5283;48.876;8.962;2023-02-26T10:08:18;-0.20;99.90
10472;DHT22;5283;48.876;8.962;2023-02-26T10:13:32;-0.20;99.90
10472;DHT22;5283;48.876;8.962;2023-02-26T10:16:15;-0.10;99.90
10472;DHT22;5283;48.876;8.962;2023-02-26T10:18:48;-0.10;99.90
10472;DHT22;5283;48.876;8.962;2023-02-26T10:21:50;0.00;99.90
10472;DHT22;5283;48.876;8.962;2023-02-26T10:24:21;0.10;99.90
10472;DHT22;5283;48.876;8.962;2023-02-26T10:27:04;0.10;99.90
10472;DHT22;5283;48.876;8.962;2023-02-26T10:29:50;0.20;99.90
10472;DHT22;5283;48.876;8.962;2023-02-26T10:32:34;0.30;99.90
10472;DHT22;5283;48.876;8.962;2023-02-26T10:35:23;0.40;99.90
10472;DHT22;5283;48.876;8.962;2023-02-26T10:37:56;0.60;99.90
10472;DHT22;5283;48.876;8.962;2023-02-26T10:51:31;0.80;99.90
10472;DHT22;5283;48.876;8.962;2023-02-26T10:54:20;0.70;99.90
10472;DHT22;5283;48.876;8.962;2023-02-26T10:56:48;0.60;99.90
10472;DHT22;5283;48.876;8.962;2023-02-26T10:59:15;0.60;99.90
10472;DHT22;5283;48.876;8.962;2023-02-26T11:01:43;0.60;99.90
10472;DHT22;5283;48.876;8.962;2023-02-26T11:04:17;0.60;99.90
10472;DHT22;5283;48.876;8.962;2023-02-26T11:06:55;0.60;99.90
10472;DHT22;5283;48.876;8.962;2023-02-26T11:09:30;0.80;99.90
10472;DHT22;5283;48.876;8.962;2023-02-26T11:14:34;0.90;99.90
10472;DHT22;5283;48.876;8.962;2023-02-26T11:19:55;1.10;99.90
10472;DHT22;5283;48.876;8.962;2023-02-26T11:22:25;1.00;99.90
10472;DHT22;5283;48.876;8.962;2023-02-26T11:24:53;0.90;99.90
10472;DHT22;5283;48.876;8.962;2023-02-26T11:27:30;0.90;99.90
10472;DHT22;5283;48.876;8.962;2023-02-26T11:29:59;0.70;99.90
10472;DHT22;5283;48.876;8.962;2023-02-26T11:32:33;0.70;99.90
10472;DHT22;5283;48.876;8.962;2023-02-26T11:35:00;0.70;99.90
10472;DHT22;5283;48.876;8.962;2023-02-26T11:37:35;0.70;99.90
10472;DHT22;5283;48.876;8.962;2023-02-26T11:40:14;0.90;99.90
10472;DHT22;5283;48.876;8.962;2023-02-26T11:42:56;1.20;99.90
10472;DHT22;5283;48.876;8.962;2023-02-26T11:45:23;1.60;99.90
10472;DHT22;5283;48.876;8.962;2023-02-26T11:48:04;1.60;99.90
10472;DHT22;5283;48.876;8.962;2023-02-26T11:50:39;1.40;99.90
10472;DHT22;5283;48.876;8.962;2023-02-26T11:53:24;1.30;99.90
10472;DHT22;5283;48.876;8.962;2023-02-26T11:56:02;1.50;99.90
10472;DHT22;5283;48.876;8.962;2023-02-26T11:58:35;1.50;99.90
10472;DHT22;5283;48.876;8.962;2023-02-26T12:01:04;1.40;99.90
10472;DHT22;5283;48.876;8.962;2023-02-26T12:03:35;1.20;99.90
10472;DHT22;5283;48.876;8.962;2023-02-26T12:06:02;1.10;99.90
10472;DHT22;5283;48.876;8.962;2023-02-26T12:08:33;1.10;99.90
10472;DHT22;5283;48.876;8.962;2023-02-26T12:25:58;0.90;99.90
10472;DHT22;5283;48.876;8.962;2023-02-26T12:40:25;1.20;99.90
10472;DHT22;5283;48.876;8.962;2023-02-26T12:45:51;1.20;99.90
10472;DHT22;5283;48.876;8.962;2023-02-26T12:51:49;1.30;99.90
10472;DHT22;5283;48.876;8.962;2023-02-26T13:03:20;1.60;99.90
10472;DHT22;5283;48.876;8.962;2023-02-26T13:09:01;1.60;99.90
10472;DHT22;5283;48.876;8.962;2023-02-26T13:14:46;1.60;99.90
10472;DHT22;5283;48.876;8.962;2023-02-26T13:20:24;1.60;99.90
10472;DHT22;5283;48.876;8.962;2023-02-26T13:22:57;1.50;99.90
10472;DHT22;5283;48.876;8.962;2023-02-26T13:25:35;1.50;99.90
10472;DHT22;5283;48.876;8.962;2023-02-26T13:30:54;1.40;99.90
10472;DHT22;5283;48.876;8.962;2023-02-26T13:33:26;1.30;99.90
10472;DHT22;5283;48.876;8.962;2023-02-26T13:35:54;1.30;99.90
10472;DHT22;5283;48.876;8.962;2023-02-26T13:47:53;1.40;99.90
10472;DHT22;5283;48.876;8.962;2023-02-26T13:55:55;1.50;99.90
10472;DHT22;5283;48.876;8.962;2023-02-26T13:58:39;1.60;99.90
10472;DHT22;5283;48.876;8.962;2023-02-26T14:01:18;1.70;99.90
10472;DHT22;5283;48.876;8.962;2023-02-26T14:03:49;1.70;99.90
10472;DHT22;5283;48.876;8.962;2023-02-26T14:09:28;1.90;99.90
10472;DHT22;5283;48.876;8.962;2023-02-26T14:12:32;2.00;99.90
10472;DHT22;5283;48.876;8.962;2023-02-26T14:22:51;2.10;99.90
10472;DHT22;5283;48.876;8.962;2023-02-26T14:25:36;2.10;99.90
10472;DHT22;5283;48.876;8.962;2023-02-26T14:33:30;2.70;99.90
10472;DHT22;5283;48.876;8.962;2023-02-26T14:36:10;2.50;99.90
10472;DHT22;5283;48.876;8.962;2023-02-26T14:38:40;2.30;99.90
10472;DHT22;5283;48.876;8.962;2023-02-26T14:44:00;2.10;99.90
10472;DHT22;5283;48.876;8.962;2023-02-26T14:46:28;2.00;99.90
10472;DHT22;5283;48.876;8.962;2023-02-26T14:48:56;2.00;99.90
10472;DHT22;5283;48.876;8.962;2023-02-26T14:54:44;2.00;99.90
10472;DHT22;5283;48.876;8.962;2023-02-26T15:00:18;2.00;99.90
10472;DHT22;5283;48.876;8.962;2023-02-26T15:06:09;1.90;99.90
10472;DHT22;5283;48.876;8.962;2023-02-26T15:09:06;1.90;99.90
10472;DHT22;5283;48.876;8.962;2023-02-26T15:17:19;1.90;99.90
10472;DHT22;5283;48.876;8.962;2023-02-26T15:20:09;1.70;99.90
10472;DHT22;5283;48.876;8.962;2023-02-26T15:25:31;1.60;99.90
10472;DHT22;5283;48.876;8.962;2023-02-26T15:28:03;1.70;99.90
10472;DHT22;5283;48.876;8.962;2023-02-26T15:30:31;1.70;99.90
10472;DHT22;5283;48.876;8.962;2023-02-26T15:33:02;1.80;99.90
10472;DHT22;5283;48.876;8.962;2023-02-26T15:35:30;1.70;99.90
10472;DHT22;5283;48.876;8.962;2023-02-26T15:38:00;1.70;99.90
10472;DHT22;5283;48.876;8.962;2023-02-26T15:40:30;1.80;99.90
10472;DHT22;5283;48.876;8.962;2023-02-26T15:42:59;1.70;99.90
10472;DHT22;5283;48.876;8.962;2023-02-26T15:45:38;1.70;99.90
10472;DHT22;5283;48.876;8.962;2023-02-26T15:48:16;1.70;99.90
10472;DHT22;5283;48.876;8.962;2023-02-26T15:50:47;1.70;99.90
10472;DHT22;5283;48.876;8.962;2023-02-26T15:53:20;1.70;99.90
10472;DHT22;5283;48.876;8.962;2023-02-26T15:55:52;1.70;99.90
10472;DHT22;5283;48.876;8.962;2023-02-26T15:58:26;1.70;99.90
10472;DHT22;5283;48.876;8.962;2023-02-26T16:00:55;1.70;99.90
10472;DHT22;5283;48.876;8.962;2023-02-26T16:03:31;1.60;99.90
10472;DHT22;5283;48.876;8.962;2023-02-26T16:05:59;1.50;99.90
10472;DHT22;5283;48.876;8.962;2023-02-26T16:08:26;1.40;99.90
10472;DHT22;5283;48.876;8.962;2023-02-26T16:10:53;1.40;99.90
10472;DHT22;5283;48.876;8.962;2023-02-26T16:13:27;1.40;99.90
10472;DHT22;5283;48.876;8.962;2023-02-26T16:16:00;1.40;99.90
10472;DHT22;5283;48.876;8.962;2023-02-26T16:18:29;1.40;99.90
10472;DHT22;5283;48.876;8.962;2023-02-26T16:20:58;1.40;99.90
10472;DHT22;5283;48.876;8.962;2023-02-26T16:23:37;1.40;99.90
10472;DHT22;5283;48.876;8.962;2023-02-26T16:26:06;1.30;99.90
10472;DHT22;5283;48.876;8.962;2023-02-26T16:28:42;1.20;99.90
10472;DHT22;5283;48.876;8.962;2023-02-26T16:31:20;1.20;99.90
10472;DHT22;5283;48.876;8.962;2023-02-26T16:34:03;1.20;99.90
10472;DHT22;5283;48.876;8.962;2023-02-26T16:36:39;1.10;99.90
10472;DHT22;5283;48.876;8.962;2023-02-26T16:41:35;1.00;99.90
10472;DHT22;5283;48.876;8.962;2023-02-26T16:44:43;0.90;99.90
10472;DHT22;5283;48.876;8.962;2023-02-26T16:46:50;0.90;99.90
10472;DHT22;5283;48.876;8.962;2023-02-26T16:49:23;0.80;99.90
10472;DHT22;5283;48.876;8.962;2023-02-26T16:51:51;0.90;99.90
10472;DHT22;5283;48.876;8.962;2023-02-26T16:54:23;0.90;99.90
10472;DHT22;5283;48.876;8.962;2023-02-26T16:56:59;0.80;99.90
10472;DHT22;5283;48.876;8.962;2023-02-26T16:59:31;0.90;99.90
10472;DHT22;5283;48.876;8.962;2023-02-26T17:02:11;1.00;99.90
10472;DHT22;5283;48.876;8.962;2023-02-26T17:04:39;1.00;99.90
10472;DHT22;5283;48.876;8.962;2023-02-26T17:07:26;1.00;99.90
10472;DHT22;5283;48.876;8.962;2023-02-26T17:09:57;1.00;99.90
10472;DHT22;5283;48.876;8.962;2023-02-26T17:12:51;0.90;99.90
10472;DHT22;5283;48.876;8.962;2023-02-26T17:15:20;0.90;99.90
10472;DHT22;5283;48.876;8.962;2023-02-26T17:17:52;0.80;99.90
10472;DHT22;5283;48.876;8.962;2023-02-26T17:20:23;0.80;99.90
10472;DHT22;5283;48.876;8.962;2023-02-26T17:22:51;0.80;99.90
10472;DHT22;5283;48.876;8.962;2023-02-26T17:25:19;0.80;99.90
10472;DHT22;5283;48.876;8.962;2023-02-26T17:27:47;0.80;99.90
10472;DHT22;5283;48.876;8.962;2023-02-26T17:30:17;0.80;99.90
10472;DHT22;5283;48.876;8.962;2023-02-26T17:32:45;0.80;99.90
10472;DHT22;5283;48.876;8.962;2023-02-26T17:35:13;0.70;99.90
10472;DHT22;5283;48.876;8.962;2023-02-26T17:37:41;0.70;99.90
10472;DHT22;5283;48.876;8.962;2023-02-26T17:40:20;0.60;99.90
10472;DHT22;5283;48.876;8.962;2023-02-26T17:42:47;0.50;99.90
10472;DHT22;5283;48.876;8.962;2023-02-26T17:45:15;0.40;99.90
10472;DHT22;5283;48.876;8.962;2023-02-26T17:47:43;0.40;99.90
10472;DHT22;5283;48.876;8.962;2023-02-26T17:53:05;0.20;99.90
10472;DHT22;5283;48.876;8.962;2023-02-26T17:55:33;0.20;99.90
10472;DHT22;5283;48.876;8.962;2023-02-26T17:58:01;0.20;99.90
10472;DHT22;5283;48.876;8.962;2023-02-26T18:00:28;0.20;99.90
10472;DHT22;5283;48.876;8.962;2023-02-26T18:02:55;0.20;99.90
10472;DHT22;5283;48.876;8.962;2023-02-26T18:05:21;0.20;99.90
10472;DHT22;5283;48.876;8.962;2023-02-26T18:07:48;0.10;99.90
10472;DHT22;5283;48.876;8.962;2023-02-26T18:10:21;0.10;99.90
10472;DHT22;5283;48.876;8.962;2023-02-26T18:12:50;0.10;99.90
10472;DHT22;5283;48.876;8.962;2023-02-26T18:15:17;0.10;99.90
10472;DHT22;5283;48.876;8.962;2023-02-26T18:17:43;0.10;99.90
10472;DHT22;5283;48.876;8.962;2023-02-26T18:20:20;0.10;99.90
10472;DHT22;5283;48.876;8.962;2023-02-26T18:22:52;0.20;99.90
10472;DHT22;5283;48.876;8.962;2023-02-26T18:25:20;0.20;99.90
10472;DHT22;5283;48.876;8.962;2023-02-26T18:27:51;0.20;99.90
10472;DHT22;5283;48.876;8.962;2023-02-26T18:30:28;0.20;99.90
10472;DHT22;5283;48.876;8.962;2023-02-26T18:32:55;0.10;99.90
10472;DHT22;5283;48.876;8.962;2023-02-26T18:35:24;0.10;99.90
10472;DHT22;5283;48.876;8.962;2023-02-26T18:37:52;0.10;99.90
10472;DHT22;5283;48.876;8.962;2023-02-26T18:40:22;0.00;99.90
10472;DHT22;5283;48.876;8.962;2023-02-26T18:42:49;0.00;99.90
10472;DHT22;5283;48.876;8.962;2023-02-26T18:45:17;-0.10;99.90
10472;DHT22;5283;48.876;8.962;2023-02-26T18:47:45;-0.10;99.90
10472;DHT22;5283;48.876;8.962;2023-02-26T18:50:14;-0.10;99.90
10472;DHT22;5283;48.876;8.962;2023-02-26T18:52:42;-0.10;99.90
10472;DHT22;5283;48.876;8.962;2023-02-26T18:55:10;-0.20;99.90
10472;DHT22;5283;48.876;8.962;2023-02-26T18:57:38;-0.10;99.90
10472;DHT22;5283;48.876;8.962;2023-02-26T19:00:08;-0.20;99.90
10472;DHT22;5283;48.876;8.962;2023-02-26T19:02:35;-0.10;99.90
10472;DHT22;5283;48.876;8.962;2023-02-26T19:05:01;-0.10;99.90
10472;DHT22;5283;48.876;8.962;2023-02-26T19:07:28;-0.20;99.90
10472;DHT22;5283;48.876;8.962;2023-02-26T19:09:55;-0.30;99.90
10472;DHT22;5283;48.876;8.962;2023-02-26T19:12:22;-0.30;99.90
10472;DHT22;5283;48.876;8.962;2023-02-26T19:14:49;-0.30;99.90
10472;DHT22;5283;48.876;8.962;2023-02-26T19:17:16;-0.30;99.90
10472;DHT22;5283;48.876;8.962;2023-02-26T19:19:43;-0.30;99.90
10472;DHT22;5283;48.876;8.962;2023-02-26T19:22:11;-0.40;99.90
10472;DHT22;5283;48.876;8.962;2023-02-26T19:24:42;-0.40;99.90